createdAt,value
2018-05-07T00:00:07.971Z,60.47
2018-05-07T00:02:37.195Z,60.43
2018-05-07T00:05:05.623Z,58.96
2018-05-07T00:07:34.100Z,59.55
2018-05-07T00:10:03.287Z,61.40
2018-05-07T00:12:31.743Z,62.78
2018-05-07T00:15:00.248Z,64.41
2018-05-07T00:17:29.421Z,64.41
2018-05-07T00:19:57.869Z,64.82
2018-05-07T00:22:27.065Z,64.63
2018-05-07T00:24:55.529Z,63.25
2018-05-07T00:27:23.981Z,64.59
2018-05-07T00:29:53.186Z,64.89
2018-05-07T00:32:21.639Z,65.75
2018-05-07T00:34:50.067Z,62.86
2018-05-07T00:37:18.495Z,64.46
2018-05-07T00:39:46.964Z,60.99
2018-05-07T00:42:15.391Z,61.65
2018-05-07T00:44:43.837Z,62.81
2018-05-07T00:47:12.279Z,61.45
2018-05-07T00:49:40.698Z,62.39
2018-05-07T00:52:09.166Z,61.77
2018-05-07T00:54:55.826Z,63.74
2018-05-07T00:57:24.301Z,63.61
2018-05-07T00:59:52.756Z,64.79
2018-05-07T01:02:21.178Z,64.85
2018-05-07T01:04:49.621Z,64.62
2018-05-07T01:07:18.810Z,66.03
2018-05-07T01:09:47.279Z,63.98
2018-05-07T01:12:15.722Z,62.69
2018-05-07T01:14:44.160Z,64.65
2018-05-07T01:17:13.370Z,65.33
2018-05-07T01:19:41.812Z,66.05
2018-05-07T01:22:10.249Z,66.11
2018-05-07T01:24:38.656Z,66.74
2018-05-07T01:27:07.083Z,64.71
2018-05-07T01:29:35.554Z,64.94
2018-05-07T01:32:04.003Z,64.10
2018-05-07T01:34:32.491Z,63.19
2018-05-07T01:37:00.894Z,64.89
2018-05-07T01:39:29.322Z,67.70
2018-05-07T01:41:58.544Z,67.68
2018-05-07T01:44:28.540Z,69.02
2018-05-07T01:46:57.023Z,68.59
2018-05-07T01:49:25.459Z,65.72
2018-05-07T01:51:53.875Z,67.45
2018-05-07T01:54:22.329Z,67.84
2018-05-07T01:56:50.766Z,64.06
2018-05-07T01:59:19.200Z,63.50
2018-05-07T02:01:47.647Z,66.29
2018-05-07T02:04:16.093Z,65.03
2018-05-07T02:06:44.555Z,64.87
2018-05-07T02:09:13.036Z,63.67
2018-05-07T02:11:43.175Z,63.29
2018-05-07T02:14:11.642Z,62.01
2018-05-07T02:16:40.108Z,64.09
2018-05-07T02:19:08.553Z,64.45
2018-05-07T02:21:36.978Z,64.35
2018-05-07T02:24:05.494Z,65.50
2018-05-07T02:26:33.925Z,65.69
2018-05-07T02:29:03.127Z,66.95
2018-05-07T02:31:31.591Z,67.20
2018-05-07T02:34:00.025Z,69.12
2018-05-07T02:36:28.493Z,70.05
2018-05-07T02:38:56.998Z,69.55
2018-05-07T02:41:25.387Z,68.63
2018-05-07T02:43:53.828Z,67.26
2018-05-07T02:46:22.328Z,67.04
2018-05-07T02:48:50.792Z,68.01
2018-05-07T02:51:19.230Z,68.96
2018-05-07T02:53:47.661Z,67.84
2018-05-07T02:56:16.115Z,69.85
2018-05-07T02:58:44.597Z,69.20
2018-05-07T03:01:13.056Z,68.45
2018-05-07T03:03:41.461Z,69.92
2018-05-07T03:06:09.896Z,69.72
2018-05-07T03:08:38.333Z,69.33
2018-05-07T03:11:07.524Z,69.93
2018-05-07T03:13:35.977Z,69.90
2018-05-07T03:16:04.404Z,69.58
2018-05-07T03:18:32.854Z,72.52
2018-05-07T03:21:01.307Z,70.48
2018-05-07T03:23:29.719Z,71.12
2018-05-07T03:25:58.179Z,67.64
2018-05-07T03:28:27.382Z,68.70
2018-05-07T03:30:55.809Z,69.73
2018-05-07T03:33:24.263Z,69.74
2018-05-07T03:35:52.683Z,69.69
2018-05-07T03:38:21.166Z,69.83
2018-05-07T03:40:49.627Z,69.67
2018-05-07T03:43:18.086Z,69.77
2018-05-07T03:45:46.528Z,70.24
2018-05-07T03:48:15.713Z,69.70
2018-05-07T03:50:44.177Z,69.19
2018-05-07T03:53:13.364Z,68.74
2018-05-07T03:55:41.795Z,68.16
2018-05-07T03:58:11.007Z,66.11
2018-05-07T04:00:39.427Z,66.51
2018-05-07T04:03:08.632Z,68.72
2018-05-07T04:05:37.134Z,70.11
2018-05-07T04:08:05.583Z,71.13
2018-05-07T04:10:34.026Z,70.10
2018-05-07T04:13:02.481Z,69.60
2018-05-07T04:15:31.728Z,67.75
2018-05-07T04:18:17.683Z,67.08
2018-05-07T04:21:03.601Z,69.93
2018-05-07T04:23:49.529Z,70.05
2018-05-07T04:26:18.091Z,71.50
2018-05-07T04:28:46.517Z,71.08
2018-05-07T04:31:14.946Z,68.66
2018-05-07T04:33:43.417Z,70.83
2018-05-07T04:36:11.852Z,71.01
2018-05-07T04:38:40.317Z,70.92
2018-05-07T04:41:08.746Z,69.73
2018-05-07T04:43:37.233Z,67.14
2018-05-07T04:46:05.800Z,68.09
2018-05-07T04:48:35.064Z,66.14
2018-05-07T04:51:04.368Z,67.37
2018-05-07T04:53:32.799Z,69.66
2018-05-07T04:56:01.254Z,71.00
2018-05-07T04:58:29.690Z,68.62
2018-05-07T05:00:58.164Z,69.68
2018-05-07T05:03:26.576Z,68.37
2018-05-07T05:05:55.798Z,68.49
2018-05-07T05:08:24.980Z,66.43
2018-05-07T05:10:53.402Z,68.27
2018-05-07T05:13:21.872Z,67.24
2018-05-07T05:15:50.318Z,70.25
2018-05-07T05:18:18.808Z,68.57
2018-05-07T05:20:47.263Z,68.87
2018-05-07T05:23:15.696Z,67.66
2018-05-07T05:25:44.117Z,65.92
2018-05-07T05:28:12.592Z,65.87
2018-05-07T05:30:41.010Z,67.69
2018-05-07T05:33:09.431Z,68.28
2018-05-07T05:35:37.887Z,67.00
2018-05-07T05:38:06.326Z,65.87
2018-05-07T05:40:34.795Z,65.11
2018-05-07T05:43:03.981Z,65.43
2018-05-07T05:45:32.440Z,65.77
2018-05-07T05:48:00.867Z,66.82
2018-05-07T05:50:29.317Z,67.44
2018-05-07T05:52:58.528Z,65.85
2018-05-07T05:55:26.964Z,65.39
2018-05-07T05:57:56.190Z,65.70
2018-05-07T06:00:24.636Z,65.25
2018-05-07T06:02:53.083Z,68.40
2018-05-07T06:05:21.529Z,67.58
2018-05-07T06:07:49.992Z,68.59
2018-05-07T06:10:18.459Z,68.10
2018-05-07T06:12:46.893Z,67.62
2018-05-07T06:15:15.356Z,67.65
2018-05-07T06:17:44.250Z,68.89
2018-05-07T06:20:12.721Z,68.53
2018-05-07T06:22:41.138Z,68.09
2018-05-07T06:25:10.378Z,68.32
2018-05-07T06:27:38.815Z,67.28
2018-05-07T06:30:07.277Z,66.78
2018-05-07T06:32:36.472Z,66.07
2018-05-07T06:35:04.885Z,66.04
2018-05-07T06:37:34.127Z,66.89
2018-05-07T06:40:02.589Z,67.82
2018-05-07T06:42:31.058Z,66.80
2018-05-07T06:44:59.490Z,68.08
2018-05-07T06:47:27.956Z,67.36
2018-05-07T06:49:57.166Z,67.29
2018-05-07T06:52:26.373Z,66.55
2018-05-07T06:54:54.812Z,65.55
2018-05-07T06:57:23.239Z,66.49
2018-05-07T06:59:51.672Z,65.24
2018-05-07T07:02:20.446Z,65.81
2018-05-07T07:04:48.806Z,65.15
2018-05-07T07:07:17.217Z,64.66
2018-05-07T07:09:45.640Z,64.27
2018-05-07T07:12:14.865Z,65.62
2018-05-07T07:14:44.047Z,65.38
2018-05-07T07:17:12.480Z,64.92
2018-05-07T07:19:41.686Z,66.23
2018-05-07T07:22:10.967Z,64.77
2018-05-07T07:24:39.403Z,65.23
2018-05-07T07:27:07.862Z,64.63
2018-05-07T07:29:36.282Z,62.53
2018-05-07T07:32:04.735Z,63.47
2018-05-07T07:34:33.196Z,63.95
2018-05-07T07:37:01.614Z,62.72
2018-05-07T07:39:30.142Z,62.58
2018-05-07T07:41:58.550Z,63.18
2018-05-07T07:44:27.033Z,61.28
2018-05-07T07:46:55.439Z,62.25
2018-05-07T07:49:23.862Z,61.34
2018-05-07T07:51:52.320Z,62.37
2018-05-07T07:54:20.761Z,61.02
2018-05-07T07:56:49.250Z,60.84
2018-05-07T07:59:17.701Z,59.54
2018-05-07T08:01:46.962Z,60.33
2018-05-07T08:04:15.496Z,59.92
2018-05-07T08:06:44.670Z,60.56
2018-05-07T08:09:13.863Z,58.03
2018-05-07T08:11:43.238Z,58.65
2018-05-07T08:14:11.686Z,57.94
2018-05-07T08:16:40.175Z,58.36
2018-05-07T08:19:08.693Z,58.71
2018-05-07T08:21:37.143Z,57.83
2018-05-07T08:24:06.426Z,58.72
2018-05-07T08:26:34.848Z,57.66
2018-05-07T08:29:03.375Z,56.95
2018-05-07T08:31:32.605Z,59.00
2018-05-07T08:34:01.049Z,53.79
2018-05-07T08:36:29.521Z,54.45
2018-05-07T08:38:57.959Z,56.07
2018-05-07T08:41:26.407Z,55.33
2018-05-07T08:43:54.849Z,55.15
2018-05-07T08:46:23.307Z,53.79
2018-05-07T08:48:51.740Z,55.39
2018-05-07T08:51:20.933Z,53.10
2018-05-07T08:53:49.400Z,53.26
2018-05-07T08:56:17.868Z,53.80
2018-05-07T08:58:47.092Z,53.29
2018-05-07T09:01:15.524Z,53.75
2018-05-07T09:03:43.990Z,51.95
2018-05-07T09:06:12.432Z,51.16
2018-05-07T09:08:41.747Z,52.93
2018-05-07T09:11:10.242Z,52.41
2018-05-07T09:13:39.561Z,51.34
2018-05-07T09:16:07.969Z,52.03
2018-05-07T09:18:36.424Z,52.50
2018-05-07T09:21:04.919Z,51.79
2018-05-07T09:23:33.366Z,52.58
2018-05-07T09:26:01.868Z,50.34
2018-05-07T09:28:30.299Z,51.72
2018-05-07T09:30:58.760Z,51.97
2018-05-07T09:33:27.274Z,50.42
2018-05-07T09:35:55.753Z,50.66
2018-05-07T09:38:24.180Z,51.18
2018-05-07T09:40:52.657Z,49.28
2018-05-07T09:43:21.130Z,51.60
2018-05-07T09:45:49.562Z,49.96
2018-05-07T09:48:18.035Z,47.04
2018-05-07T09:50:46.492Z,47.19
2018-05-07T09:53:14.954Z,47.69
2018-05-07T09:55:43.433Z,48.57
2018-05-07T09:58:11.859Z,47.38
2018-05-07T10:00:40.353Z,48.61
2018-05-07T10:03:08.795Z,48.04
2018-05-07T10:05:37.283Z,47.27
2018-05-07T10:08:06.541Z,47.67
2018-05-07T10:10:35.021Z,48.58
2018-05-07T10:13:03.495Z,47.01
2018-05-07T10:15:31.978Z,47.80
2018-05-07T10:18:00.461Z,48.40
2018-05-07T10:20:28.907Z,47.80
2018-05-07T10:22:57.391Z,48.17
2018-05-07T10:25:25.841Z,48.22
2018-05-07T10:27:54.301Z,46.43
2018-05-07T10:30:22.819Z,48.31
2018-05-07T10:32:51.344Z,46.39
2018-05-07T10:35:19.848Z,47.89
2018-05-07T10:37:48.269Z,48.21
2018-05-07T10:40:16.735Z,47.18
2018-05-07T10:42:45.194Z,46.81
2018-05-07T10:45:13.661Z,45.48
2018-05-07T10:47:42.128Z,46.22
2018-05-07T10:50:10.604Z,47.06
2018-05-07T10:52:39.064Z,45.78
2018-05-07T10:55:07.529Z,45.09
2018-05-07T10:57:36.046Z,47.30
2018-05-07T11:00:04.509Z,44.66
2018-05-07T11:02:32.969Z,45.49
2018-05-07T11:05:01.398Z,47.38
2018-05-07T11:07:29.885Z,44.31
2018-05-07T11:09:58.325Z,42.84
2018-05-07T11:12:26.793Z,43.80
2018-05-07T11:14:55.222Z,43.67
2018-05-07T11:17:23.670Z,43.70
2018-05-07T11:19:52.108Z,43.31
2018-05-07T11:22:20.546Z,43.55
2018-05-07T11:24:48.998Z,43.78
2018-05-07T11:27:18.231Z,40.89
2018-05-07T11:29:46.714Z,41.69
2018-05-07T11:32:15.151Z,42.13
2018-05-07T11:34:43.641Z,41.81
2018-05-07T11:37:12.861Z,41.98
2018-05-07T11:39:41.291Z,42.31
2018-05-07T11:42:09.797Z,41.75
2018-05-07T11:44:38.252Z,40.46
2018-05-07T11:47:06.751Z,41.09
2018-05-07T11:49:35.216Z,41.21
2018-05-07T11:52:03.683Z,42.80
2018-05-07T11:54:32.138Z,43.21
2018-05-07T11:57:00.628Z,40.42
2018-05-07T11:59:29.097Z,41.05
2018-05-07T12:01:57.518Z,39.35
2018-05-07T12:04:25.963Z,39.82
2018-05-07T12:06:54.447Z,41.90
2018-05-07T12:09:23.113Z,39.71
2018-05-07T12:11:51.569Z,39.62
2018-05-07T12:14:19.988Z,40.93
2018-05-07T12:16:48.453Z,39.95
2018-05-07T12:19:16.881Z,41.31
2018-05-07T12:21:45.343Z,39.43
2018-05-07T12:24:13.793Z,40.14
2018-05-07T12:26:42.273Z,38.86
2018-05-07T12:29:11.544Z,39.67
2018-05-07T12:31:40.063Z,39.51
2018-05-07T12:34:08.519Z,39.77
2018-05-07T12:36:37.006Z,39.26
2018-05-07T12:39:05.565Z,36.64
2018-05-07T12:41:34.021Z,38.06
2018-05-07T12:44:02.485Z,37.99
2018-05-07T12:46:30.942Z,37.95
2018-05-07T12:49:00.176Z,38.31
2018-05-07T12:51:28.639Z,37.18
2018-05-07T12:53:57.080Z,37.74
2018-05-07T12:56:27.261Z,38.16
2018-05-07T12:58:57.725Z,37.21
2018-05-07T13:01:26.208Z,36.39
2018-05-07T13:03:54.679Z,37.28
2018-05-07T13:06:23.168Z,39.73
2018-05-07T13:08:51.604Z,37.68
2018-05-07T13:11:20.071Z,36.62
2018-05-07T13:13:48.520Z,38.22
2018-05-07T13:16:16.942Z,36.59
2018-05-07T13:18:45.481Z,37.52
2018-05-07T13:21:14.952Z,35.61
2018-05-07T13:23:43.441Z,36.76
2018-05-07T13:26:11.870Z,38.67
2018-05-07T13:28:41.083Z,36.14
2018-05-07T13:31:09.560Z,37.28
2018-05-07T13:33:38.036Z,35.33
2018-05-07T13:36:06.489Z,37.02
2018-05-07T13:38:34.946Z,34.69
2018-05-07T13:41:03.398Z,35.88
2018-05-07T13:43:31.819Z,36.83
2018-05-07T13:46:01.963Z,36.69
2018-05-07T13:48:31.140Z,36.33
2018-05-07T13:51:03.169Z,35.51
2018-05-07T13:53:31.593Z,34.72
2018-05-07T13:56:00.044Z,35.36
2018-05-07T13:58:28.541Z,34.68
2018-05-07T14:00:56.974Z,35.86
2018-05-07T14:03:25.451Z,35.54
2018-05-07T14:05:53.883Z,35.41
2018-05-07T14:08:22.452Z,33.62
2018-05-07T14:10:52.845Z,35.10
2018-05-07T14:13:21.306Z,34.86
2018-05-07T14:15:49.751Z,34.67
2018-05-07T14:18:18.175Z,34.94
2018-05-07T14:20:46.611Z,34.16
2018-05-07T14:23:15.019Z,33.72
2018-05-07T14:25:43.489Z,34.41
2018-05-07T14:28:12.694Z,34.05
2018-05-07T14:30:41.172Z,34.13
2018-05-07T14:33:09.630Z,34.11
2018-05-07T14:35:38.099Z,33.94
2018-05-07T14:38:06.529Z,34.19
2018-05-07T14:40:34.962Z,35.43
2018-05-07T14:43:03.453Z,33.58
2018-05-07T14:45:32.664Z,33.13
2018-05-07T14:48:01.184Z,33.35
2018-05-07T14:50:30.394Z,33.96
2018-05-07T14:52:58.857Z,33.92
2018-05-07T14:55:27.283Z,34.34
2018-05-07T14:57:55.740Z,34.46
2018-05-07T15:00:24.150Z,33.07
2018-05-07T15:02:52.549Z,33.13
2018-05-07T15:05:20.972Z,33.10
2018-05-07T15:07:49.398Z,33.58
2018-05-07T15:10:17.905Z,32.00
2018-05-07T15:12:46.389Z,33.30
2018-05-07T15:15:14.853Z,33.10
2018-05-07T15:17:44.453Z,32.63
2018-05-07T15:20:12.929Z,32.57
2018-05-07T15:22:41.333Z,32.85
2018-05-07T15:25:09.793Z,33.56
2018-05-07T15:27:38.230Z,34.03
2018-05-07T15:30:06.667Z,33.42
2018-05-07T15:32:35.106Z,32.81
2018-05-07T15:35:03.546Z,32.86
2018-05-07T15:37:32.043Z,31.99
2018-05-07T15:40:00.483Z,32.03
2018-05-07T15:42:29.070Z,31.38
2018-05-07T15:44:57.501Z,31.75
2018-05-07T15:47:25.978Z,32.82
2018-05-07T15:49:54.450Z,32.97
2018-05-07T15:52:23.586Z,32.15
2018-05-07T15:54:52.110Z,32.27
2018-05-07T15:57:20.604Z,32.29
2018-05-07T15:59:49.082Z,32.77
2018-05-07T16:02:17.503Z,32.95
2018-05-07T16:04:45.943Z,32.67
2018-05-07T16:07:15.230Z,32.29
2018-05-07T16:09:43.676Z,32.50
2018-05-07T16:12:12.134Z,31.98
2018-05-07T16:14:40.581Z,33.05
2018-05-07T16:17:09.010Z,32.49
2018-05-07T16:19:37.472Z,32.55
2018-05-07T16:22:06.749Z,32.62
2018-05-07T16:24:35.132Z,32.72
2018-05-07T16:27:03.577Z,31.93
2018-05-07T16:29:32.011Z,32.05
2018-05-07T16:32:00.500Z,31.86
2018-05-07T16:34:29.058Z,32.64
2018-05-07T16:36:57.528Z,32.83
2018-05-07T16:39:25.991Z,32.29
2018-05-07T16:41:54.439Z,31.31
2018-05-07T16:44:23.183Z,32.72
2018-05-07T16:46:51.673Z,32.03
2018-05-07T16:49:20.116Z,31.74
2018-05-07T16:51:48.548Z,31.21
2018-05-07T16:54:17.791Z,31.44
2018-05-07T16:56:46.799Z,32.10
2018-05-07T16:59:16.037Z,30.85
2018-05-07T17:01:44.487Z,30.48
2018-05-07T17:04:12.928Z,30.69
2018-05-07T17:06:41.394Z,33.27
2018-05-07T17:09:09.834Z,31.23
2018-05-07T17:11:38.285Z,30.50
2018-05-07T17:14:06.764Z,30.51
2018-05-07T17:16:35.250Z,31.15
2018-05-07T17:19:03.984Z,31.50
2018-05-07T17:21:32.897Z,30.60
2018-05-07T17:24:01.451Z,31.45
2018-05-07T17:26:29.883Z,30.19
2018-05-07T17:28:58.375Z,30.75
2018-05-07T17:31:26.838Z,31.33
2018-05-07T17:33:55.405Z,31.12
2018-05-07T17:36:23.873Z,32.88
2018-05-07T17:38:52.311Z,31.64
2018-05-07T17:41:20.750Z,32.24
2018-05-07T17:43:49.191Z,32.51
2018-05-07T17:46:31.295Z,33.27
2018-05-07T17:48:59.782Z,32.97
2018-05-07T17:51:29.006Z,33.42
2018-05-07T17:53:57.447Z,33.74
2018-05-07T17:56:25.989Z,34.50
2018-05-07T17:58:54.434Z,33.63
2018-05-07T18:01:22.937Z,34.22
2018-05-07T18:03:51.384Z,33.84
2018-05-07T18:06:19.831Z,33.90
2018-05-07T18:08:48.349Z,34.05
2018-05-07T18:11:16.804Z,34.93
2018-05-07T18:13:45.262Z,34.95
2018-05-07T18:16:13.740Z,35.01
2018-05-07T18:18:42.321Z,34.81
2018-05-07T18:21:10.690Z,35.05
2018-05-07T18:23:39.178Z,35.78
2018-05-07T18:26:08.402Z,36.71
2018-05-07T18:28:40.213Z,35.01
2018-05-07T18:31:08.726Z,37.05
2018-05-07T18:33:37.280Z,35.98
2018-05-07T18:36:06.072Z,36.66
2018-05-07T18:38:34.631Z,36.55
2018-05-07T18:41:03.220Z,36.99
2018-05-07T18:43:31.740Z,38.00
2018-05-07T18:46:00.265Z,37.31
2018-05-07T18:48:28.994Z,37.88
2018-05-07T18:50:57.545Z,37.65
2018-05-07T18:53:26.303Z,38.05
2018-05-07T18:55:55.781Z,37.97
2018-05-07T18:58:25.522Z,38.38
2018-05-07T19:00:54.793Z,37.72
2018-05-07T19:03:24.501Z,37.89
2018-05-07T19:05:54.015Z,38.42
2018-05-07T19:08:23.607Z,37.75
2018-05-07T19:10:52.588Z,37.99
2018-05-07T19:13:21.439Z,38.84
2018-05-07T19:15:50.159Z,38.62
2018-05-07T19:18:19.648Z,39.07
2018-05-07T19:20:49.554Z,37.54
2018-05-07T19:23:18.433Z,38.53
2018-05-07T19:25:48.025Z,37.95
2018-05-07T19:28:17.540Z,39.16
2018-05-07T19:30:46.884Z,38.20
2018-05-07T19:33:16.303Z,38.48
2018-05-07T19:35:45.341Z,39.22
2018-05-07T19:38:13.913Z,38.82
2018-05-07T19:40:42.651Z,38.99
2018-05-07T19:43:11.113Z,38.75
2018-05-07T19:45:39.567Z,38.96
2018-05-07T19:48:08.063Z,38.83
2018-05-07T19:50:36.553Z,39.22
2018-05-07T19:53:05.256Z,38.96
2018-05-07T19:55:34.620Z,39.75
2018-05-07T19:58:03.121Z,39.72
2018-05-07T20:00:31.547Z,39.03
2018-05-07T20:03:00.292Z,39.24
2018-05-07T20:05:28.754Z,39.56
2018-05-07T20:07:57.235Z,39.34
2018-05-07T20:10:26.492Z,39.13
2018-05-07T20:12:54.965Z,39.67
2018-05-07T20:15:24.239Z,40.20
2018-05-07T20:17:52.701Z,39.95
2018-05-07T20:20:21.157Z,40.95
2018-05-07T20:22:49.585Z,40.43
2018-05-07T20:25:18.077Z,40.75
2018-05-07T20:27:46.541Z,41.10
2018-05-07T20:30:15.058Z,41.15
2018-05-07T20:32:43.570Z,41.49
2018-05-07T20:35:12.093Z,41.48
2018-05-07T20:37:40.559Z,41.01
2018-05-07T20:40:09.072Z,41.45
2018-05-07T20:42:37.603Z,41.12
2018-05-07T20:45:08.153Z,41.04
2018-05-07T20:47:36.630Z,41.78
2018-05-07T20:50:05.872Z,41.57
2018-05-07T20:52:34.314Z,41.13
2018-05-07T20:55:02.809Z,41.15
2018-05-07T20:57:31.262Z,41.69
2018-05-07T21:00:00.475Z,42.35
2018-05-07T21:02:28.924Z,42.64
2018-05-07T21:05:01.747Z,43.00
2018-05-07T21:07:30.210Z,42.78
2018-05-07T21:09:59.689Z,42.89
2018-05-07T21:12:28.204Z,43.17
2018-05-07T21:14:56.708Z,42.75
2018-05-07T21:17:25.510Z,42.76
2018-05-07T21:19:53.966Z,43.00
2018-05-07T21:22:22.484Z,43.21
2018-05-07T21:24:50.994Z,44.57
2018-05-07T21:27:19.477Z,44.37
2018-05-07T21:29:47.922Z,44.74
2018-05-07T21:32:16.376Z,44.86
2018-05-07T21:34:44.872Z,45.63
2018-05-07T21:37:13.323Z,46.10
2018-05-07T21:39:41.803Z,48.27
2018-05-07T21:42:11.483Z,48.34
2018-05-07T21:44:40.424Z,48.52
2018-05-07T21:47:08.937Z,49.65
2018-05-07T21:49:37.433Z,48.59
2018-05-07T21:52:05.953Z,47.78
2018-05-07T21:54:34.442Z,48.32
2018-05-07T21:57:05.005Z,48.95
2018-05-07T21:59:33.562Z,49.11
2018-05-07T22:02:02.915Z,49.71
2018-05-07T22:04:35.304Z,49.71
2018-05-07T22:07:04.114Z,49.50
2018-05-07T22:09:33.114Z,50.37
2018-05-07T22:12:01.589Z,50.87
2018-05-07T22:14:32.713Z,49.05
2018-05-07T22:17:01.276Z,50.38
2018-05-07T22:19:29.825Z,49.68
2018-05-07T22:21:58.330Z,50.64
2018-05-07T22:24:27.041Z,50.61
2018-05-07T22:26:55.563Z,51.97
2018-05-07T22:29:23.996Z,50.89
2018-05-07T22:31:52.519Z,51.01
2018-05-07T22:34:21.022Z,51.63
2018-05-07T22:36:50.866Z,52.94
2018-05-07T22:39:19.379Z,51.42
2018-05-07T22:41:49.998Z,53.70
2018-05-07T22:44:20.086Z,53.05
2018-05-07T22:46:48.830Z,52.81
2018-05-07T22:49:17.483Z,51.87
2018-05-07T22:51:47.273Z,52.04
2018-05-07T22:54:16.356Z,51.74
2018-05-07T22:56:45.500Z,51.86
2018-05-07T22:59:14.065Z,52.20
2018-05-07T23:01:46.407Z,52.62
2018-05-07T23:04:15.162Z,53.08
2018-05-07T23:06:43.729Z,54.63
2018-05-07T23:09:12.189Z,55.17
2018-05-07T23:11:40.643Z,54.95
2018-05-07T23:14:09.145Z,54.91
2018-05-07T23:16:37.613Z,56.00
2018-05-07T23:19:06.044Z,56.27
2018-05-07T23:21:34.553Z,56.83
2018-05-07T23:24:03.089Z,57.80
2018-05-07T23:26:31.672Z,57.37
2018-05-07T23:29:00.169Z,57.28
2018-05-07T23:31:29.369Z,56.85
2018-05-07T23:33:57.845Z,57.15
2018-05-07T23:36:26.460Z,55.16
2018-05-07T23:38:55.267Z,54.92
2018-05-07T23:41:25.101Z,53.44
2018-05-07T23:43:53.595Z,54.42
2018-05-07T23:46:24.232Z,55.83
2018-05-07T23:48:52.765Z,55.66
2018-05-07T23:51:21.439Z,57.57
2018-05-07T23:53:50.686Z,59.05
2018-05-07T23:56:37.325Z,59.18
2018-05-07T23:59:07.756Z,58.05
